createdAt,value
2022-08-02T00:00:40.528Z,67.83
2022-08-02T00:03:09.355Z,67.87
2022-08-02T00:05:37.019Z,67.88
2022-08-02T00:08:05.063Z,67.80
2022-08-02T00:10:33.124Z,67.98
2022-08-02T00:13:00.766Z,68.27
2022-08-02T00:15:28.387Z,68.33
2022-08-02T00:17:56.066Z,68.37
2022-08-02T00:20:23.780Z,68.47
2022-08-02T00:22:51.395Z,68.36
2022-08-02T00:25:19.053Z,68.44
2022-08-02T00:27:46.647Z,68.35
2022-08-02T00:30:14.423Z,68.33
2022-08-02T00:32:42.055Z,68.28
2022-08-02T00:35:09.821Z,68.27
2022-08-02T00:37:41.652Z,68.17
2022-08-02T00:40:10.464Z,68.44
2022-08-02T00:42:39.631Z,68.39
2022-08-02T00:45:08.668Z,68.54
2022-08-02T00:47:36.532Z,68.73
2022-08-02T00:50:04.951Z,69.09
2022-08-02T00:52:32.576Z,69.49
2022-08-02T00:55:00.178Z,69.83
2022-08-02T00:57:27.923Z,70.30
2022-08-02T00:59:55.516Z,70.30
2022-08-02T01:02:23.099Z,70.16
2022-08-02T01:04:50.676Z,70.34
2022-08-02T01:07:18.706Z,70.51
2022-08-02T01:09:46.872Z,70.65
2022-08-02T01:12:15.202Z,70.83
2022-08-02T01:14:46.311Z,70.96
2022-08-02T01:17:22.769Z,71.05
2022-08-02T01:19:50.276Z,71.30
2022-08-02T01:23:04.295Z,71.32
2022-08-02T01:25:41.137Z,71.33
2022-08-02T01:28:34.396Z,71.80
2022-08-02T01:31:24.946Z,72.03
2022-08-02T01:34:19.139Z,72.02
2022-08-02T01:36:55.056Z,72.29
2022-08-02T01:39:32.121Z,72.18
2022-08-02T01:42:02.086Z,72.20
2022-08-02T01:44:33.912Z,72.29
2022-08-02T01:47:06.279Z,72.38
2022-08-02T01:49:36.755Z,72.30
2022-08-02T01:52:23.751Z,72.44
2022-08-02T01:55:06.329Z,72.38
2022-08-02T01:57:42.063Z,72.51
2022-08-02T02:00:11.705Z,72.83
2022-08-02T02:02:42.755Z,72.86
2022-08-02T02:05:19.471Z,72.90
2022-08-02T02:07:50.974Z,72.96
2022-08-02T02:10:24.767Z,72.92
2022-08-02T02:12:53.311Z,72.77
2022-08-02T02:15:22.949Z,72.73
2022-08-02T02:18:12.366Z,72.66
2022-08-02T02:20:43.382Z,72.73
2022-08-02T02:23:13.264Z,72.77
2022-08-02T02:25:46.941Z,72.91
2022-08-02T02:28:24.304Z,73.04
2022-08-02T02:30:56.791Z,73.01
2022-08-02T02:33:29.347Z,72.78
2022-08-02T02:35:59.227Z,72.76
2022-08-02T02:38:31.553Z,72.60
2022-08-02T02:41:02.889Z,72.20
2022-08-02T02:43:33.420Z,72.37
2022-08-02T02:46:04.708Z,72.45
2022-08-02T02:48:34.090Z,72.51
2022-08-02T02:51:05.543Z,72.57
2022-08-02T02:54:30.225Z,72.65
2022-08-02T02:56:24.611Z,72.76
2022-08-02T02:58:54.618Z,72.89
2022-08-02T03:01:56.170Z,72.89
2022-08-02T03:04:18.045Z,73.25
2022-08-02T03:06:46.183Z,73.33
2022-08-02T03:09:13.994Z,73.54
2022-08-02T03:11:42.479Z,73.72
2022-08-02T03:14:12.138Z,73.91
2022-08-02T03:16:48.909Z,74.02
2022-08-02T03:19:17.854Z,74.13
2022-08-02T03:21:46.716Z,74.17
2022-08-02T03:24:14.686Z,74.15
2022-08-02T03:26:42.652Z,74.20
2022-08-02T03:29:10.942Z,74.45
2022-08-02T03:31:43.801Z,74.29
2022-08-02T03:34:11.738Z,74.40
2022-08-02T03:36:41.484Z,74.47
2022-08-02T03:39:11.572Z,74.59
2022-08-02T03:41:40.536Z,74.79
2022-08-02T03:44:10.952Z,74.75
2022-08-02T03:46:39.993Z,75.05
2022-08-02T03:49:08.731Z,75.14
2022-08-02T03:51:36.906Z,75.00
2022-08-02T03:54:05.052Z,75.03
2022-08-02T03:56:33.943Z,75.16
2022-08-02T03:59:07.348Z,75.15
2022-08-02T04:01:34.930Z,75.31
2022-08-02T04:04:02.643Z,75.22
2022-08-02T04:06:30.255Z,75.44
2022-08-02T04:08:57.857Z,75.48
2022-08-02T04:11:31.306Z,75.49
2022-08-02T04:14:03.032Z,75.69
2022-08-02T04:16:50.390Z,75.89
2022-08-02T04:19:38.514Z,75.82
2022-08-02T04:22:09.627Z,75.94
2022-08-02T04:24:47.300Z,75.83
2022-08-02T04:27:50.745Z,75.89
2022-08-02T04:30:08.603Z,75.81
2022-08-02T04:32:37.487Z,75.83
2022-08-02T04:35:22.711Z,75.99
2022-08-02T04:38:08.632Z,76.19
2022-08-02T04:40:38.582Z,76.19
2022-08-02T04:43:06.344Z,76.08
2022-08-02T04:45:34.524Z,76.23
2022-08-02T04:48:04.897Z,76.19
2022-08-02T04:50:34.758Z,76.31
2022-08-02T04:53:02.512Z,76.12
2022-08-02T04:55:30.358Z,76.36
2022-08-02T04:57:59.181Z,76.38
2022-08-02T05:00:28.708Z,76.65
2022-08-02T05:02:57.388Z,76.44
2022-08-02T05:05:26.268Z,76.50
2022-08-02T05:07:53.896Z,76.58
2022-08-02T05:10:21.754Z,76.45
2022-08-02T05:12:49.488Z,76.41
2022-08-02T05:15:18.565Z,76.18
2022-08-02T05:17:48.706Z,76.21
2022-08-02T05:20:17.988Z,76.39
2022-08-02T05:22:46.537Z,76.22
2022-08-02T05:25:14.930Z,76.21
2022-08-02T05:27:42.596Z,76.07
2022-08-02T05:30:11.141Z,76.09
2022-08-02T05:32:52.394Z,76.09
2022-08-02T05:35:21.911Z,75.99
2022-08-02T05:37:50.668Z,75.97
2022-08-02T05:40:25.324Z,75.91
2022-08-02T05:42:55.139Z,75.87
2022-08-02T05:45:23.127Z,75.77
2022-08-02T05:47:51.412Z,75.71
2022-08-02T05:50:19.796Z,75.64
2022-08-02T05:52:56.632Z,75.77
2022-08-02T05:55:32.293Z,75.76
2022-08-02T05:58:22.547Z,75.86
2022-08-02T06:00:52.567Z,75.54
2022-08-02T06:03:32.565Z,75.71
2022-08-02T06:06:12.458Z,75.78
2022-08-02T06:08:42.505Z,75.84
2022-08-02T06:11:20.906Z,75.91
2022-08-02T06:13:49.178Z,75.63
2022-08-02T06:16:17.945Z,75.29
2022-08-02T06:18:45.730Z,75.12
2022-08-02T06:22:36.085Z,75.00
2022-08-02T06:24:05.329Z,74.75
2022-08-02T06:26:34.006Z,74.84
2022-08-02T06:29:02.376Z,74.90
2022-08-02T06:31:30.451Z,74.76
2022-08-02T06:33:58.176Z,74.53
2022-08-02T06:36:35.640Z,74.33
2022-08-02T06:39:08.291Z,74.12
2022-08-02T06:41:42.091Z,74.15
2022-08-02T06:47:11.530Z,74.32
2022-08-02T06:49:51.617Z,74.19
2022-08-02T06:52:30.149Z,74.13
2022-08-02T06:54:59.727Z,73.93
2022-08-02T06:57:29.147Z,73.83
2022-08-02T06:59:58.127Z,73.65
2022-08-02T07:02:25.767Z,73.46
2022-08-02T07:04:54.524Z,73.52
2022-08-02T07:07:22.208Z,73.61
2022-08-02T07:10:00.664Z,73.32
2022-08-02T07:12:31.365Z,73.09
2022-08-02T07:15:01.320Z,72.96
2022-08-02T07:17:29.925Z,72.98
2022-08-02T07:19:58.695Z,72.67
2022-08-02T07:22:28.167Z,72.21
2022-08-02T07:24:57.638Z,72.29
2022-08-02T07:27:26.371Z,72.44
2022-08-02T07:29:55.278Z,71.77
2022-08-02T07:32:29.182Z,71.41
2022-08-02T07:34:57.967Z,71.39
2022-08-02T07:37:53.991Z,71.15
2022-08-02T07:40:19.917Z,71.22
2022-08-02T07:42:51.911Z,71.41
2022-08-02T07:45:21.577Z,71.37
2022-08-02T07:47:50.684Z,71.11
2022-08-02T07:50:20.894Z,70.84
2022-08-02T07:52:49.420Z,70.35
2022-08-02T07:55:20.248Z,70.49
2022-08-02T07:57:48.016Z,70.40
2022-08-02T08:00:17.342Z,70.34
2022-08-02T08:02:45.900Z,69.30
2022-08-02T08:05:14.060Z,69.19
2022-08-02T08:07:42.168Z,68.44
2022-08-02T08:10:11.094Z,68.55
2022-08-02T08:12:38.781Z,67.98
2022-08-02T08:15:06.995Z,68.45
2022-08-02T08:17:35.367Z,68.04
2022-08-02T08:20:04.861Z,67.50
2022-08-02T08:22:32.688Z,67.09
2022-08-02T08:25:00.263Z,67.80
2022-08-02T08:27:27.897Z,68.22
2022-08-02T08:29:55.718Z,67.12
2022-08-02T08:32:24.034Z,67.16
2022-08-02T08:34:51.867Z,66.91
2022-08-02T08:37:19.477Z,66.59
2022-08-02T08:39:56.512Z,66.41
2022-08-02T08:42:31.147Z,66.20
2022-08-02T08:44:59.910Z,66.38
2022-08-02T08:47:38.248Z,66.64
2022-08-02T08:50:18.095Z,66.14
2022-08-02T08:52:53.429Z,66.37
2022-08-02T08:55:24.782Z,66.24
2022-08-02T08:57:54.897Z,66.16
2022-08-02T09:00:22.677Z,66.29
2022-08-02T09:02:51.133Z,66.27
2022-08-02T09:05:19.214Z,65.96
2022-08-02T09:07:51.924Z,65.48
2022-08-02T09:10:43.123Z,65.40
2022-08-02T09:13:37.859Z,65.06
2022-08-02T09:16:14.450Z,65.21
2022-08-02T09:18:45.363Z,65.16
2022-08-02T09:21:15.606Z,65.00
2022-08-02T09:23:48.412Z,65.02
2022-08-02T09:26:22.363Z,64.73
2022-08-02T09:28:52.986Z,64.62
2022-08-02T09:31:22.936Z,64.55
2022-08-02T09:33:54.311Z,64.04
2022-08-02T09:36:23.628Z,63.64
2022-08-02T09:39:01.603Z,63.79
2022-08-02T09:41:32.373Z,63.48
2022-08-02T09:44:04.456Z,63.15
2022-08-02T09:46:42.767Z,62.28
2022-08-02T09:49:16.972Z,62.57
2022-08-02T09:51:47.696Z,62.38
2022-08-02T09:54:18.492Z,62.20
2022-08-02T09:56:47.462Z,62.21
2022-08-02T09:59:16.398Z,61.81
2022-08-02T10:01:50.732Z,61.98
2022-08-02T10:04:30.679Z,61.60
2022-08-02T10:07:03.519Z,61.74
2022-08-02T10:09:32.182Z,61.10
2022-08-02T10:12:00.573Z,61.06
2022-08-02T10:14:28.336Z,60.69
2022-08-02T10:16:58.337Z,60.72
2022-08-02T10:20:00.008Z,60.79
2022-08-02T10:22:19.945Z,60.64
2022-08-02T10:24:48.858Z,60.50
2022-08-02T10:27:21.692Z,60.14
2022-08-02T10:29:54.215Z,59.45
2022-08-02T10:32:31.588Z,59.75
2022-08-02T10:35:26.262Z,58.76
2022-08-02T10:38:01.221Z,58.08
2022-08-02T10:40:54.838Z,57.88
2022-08-02T10:43:38.569Z,58.09
2022-08-02T10:46:22.066Z,57.68
2022-08-02T10:49:36.166Z,56.95
2022-08-02T10:51:57.357Z,58.13
2022-08-02T10:54:26.268Z,58.29
2022-08-02T10:56:56.509Z,56.83
2022-08-02T10:59:30.699Z,57.89
2022-08-02T11:02:04.709Z,57.41
2022-08-02T11:04:53.260Z,56.75
2022-08-02T11:07:32.732Z,56.17
2022-08-02T11:10:26.215Z,55.91
2022-08-02T11:13:26.909Z,56.43
2022-08-02T11:16:01.275Z,55.97
2022-08-02T11:18:50.953Z,55.70
2022-08-02T11:21:37.239Z,55.71
2022-08-02T11:24:29.343Z,53.95
2022-08-02T11:26:59.482Z,54.24
2022-08-02T11:29:38.457Z,54.19
2022-08-02T11:32:18.052Z,54.14
2022-08-02T11:34:47.838Z,53.94
2022-08-02T11:37:35.774Z,53.35
2022-08-02T11:40:10.312Z,52.94
2022-08-02T11:42:51.278Z,52.95
2022-08-02T11:45:29.297Z,53.77
2022-08-02T11:47:57.510Z,52.89
2022-08-02T11:50:29.756Z,53.77
2022-08-02T11:52:58.145Z,53.55
2022-08-02T11:55:30.689Z,53.28
2022-08-02T11:58:05.737Z,53.60
2022-08-02T12:00:34.137Z,53.28
2022-08-02T12:03:01.981Z,52.54
2022-08-02T12:06:03.009Z,52.56
2022-08-02T12:08:22.442Z,52.07
2022-08-02T12:10:53.209Z,52.30
2022-08-02T12:13:20.911Z,51.94
2022-08-02T12:15:48.609Z,51.14
2022-08-02T12:18:37.407Z,50.20
2022-08-02T12:21:25.233Z,50.68
2022-08-02T12:23:59.813Z,49.31
2022-08-02T12:26:30.103Z,49.59
2022-08-02T12:28:59.618Z,49.60
2022-08-02T12:31:56.724Z,49.59
2022-08-02T12:34:29.898Z,50.10
2022-08-02T12:37:07.127Z,49.78
2022-08-02T12:39:51.181Z,49.84
2022-08-02T12:42:18.984Z,48.81
2022-08-02T12:44:52.802Z,48.19
2022-08-02T12:47:21.813Z,47.17
2022-08-02T12:50:12.974Z,45.95
2022-08-02T12:52:40.667Z,44.88
2022-08-02T12:55:16.828Z,44.90
2022-08-02T12:57:55.756Z,43.62
2022-08-02T13:00:32.341Z,42.84
2022-08-02T13:03:00.894Z,43.17
2022-08-02T13:05:29.885Z,43.48
2022-08-02T13:08:18.152Z,42.26
2022-08-02T13:10:45.780Z,39.84
2022-08-02T13:13:13.956Z,37.73
2022-08-02T13:15:49.215Z,36.11
2022-08-02T13:18:18.682Z,36.11
2022-08-02T13:20:46.724Z,37.21
2022-08-02T13:23:21.514Z,37.71
2022-08-02T13:25:52.925Z,33.62
2022-08-02T13:28:21.101Z,35.39
2022-08-02T13:30:49.932Z,36.44
2022-08-02T13:33:18.627Z,36.57
2022-08-02T13:35:47.341Z,36.23
2022-08-02T13:38:15.383Z,36.88
2022-08-02T13:41:04.184Z,36.04
2022-08-02T13:43:53.594Z,35.86
2022-08-02T13:46:29.028Z,36.26
2022-08-02T13:48:57.822Z,35.49
2022-08-02T13:51:25.609Z,35.70
2022-08-02T13:53:53.674Z,35.26
2022-08-02T13:56:35.368Z,34.41
2022-08-02T13:59:26.343Z,33.68
2022-08-02T14:01:53.639Z,31.89
2022-08-02T14:04:21.815Z,32.33
2022-08-02T14:06:50.241Z,31.90
2022-08-02T14:09:18.883Z,30.35
2022-08-02T14:11:46.932Z,30.23
2022-08-02T14:14:16.977Z,27.11
2022-08-02T14:16:45.592Z,28.17
2022-08-02T14:19:16.268Z,28.87
2022-08-02T14:21:46.480Z,28.24
2022-08-02T14:24:20.731Z,28.74
2022-08-02T14:26:49.376Z,27.51
2022-08-02T14:29:18.206Z,28.13
2022-08-02T14:31:45.948Z,28.03
2022-08-02T14:34:13.880Z,27.84
2022-08-02T14:36:41.976Z,27.89
2022-08-02T14:39:10.333Z,27.57
2022-08-02T14:41:59.760Z,27.33
2022-08-02T14:44:25.826Z,27.02
2022-08-02T14:46:53.657Z,25.23
2022-08-02T14:49:24.856Z,25.62
2022-08-02T14:51:55.321Z,26.15
2022-08-02T14:54:28.033Z,26.54
2022-08-02T14:57:00.513Z,26.50
2022-08-02T14:59:28.851Z,26.86
2022-08-02T15:01:57.110Z,26.53
2022-08-02T15:04:25.837Z,26.61
2022-08-02T15:06:54.432Z,26.30
2022-08-02T15:09:22.380Z,26.68
2022-08-02T15:11:50.048Z,26.80
2022-08-02T15:14:25.398Z,26.99
2022-08-02T15:16:57.501Z,27.51
2022-08-02T15:19:31.615Z,27.45
2022-08-02T15:22:16.553Z,26.72
2022-08-02T15:24:46.577Z,26.41
2022-08-02T15:27:15.270Z,26.23
2022-08-02T15:29:45.065Z,26.62
2022-08-02T15:32:14.299Z,26.42
2022-08-02T15:34:42.387Z,26.70
2022-08-02T15:37:10.017Z,26.01
2022-08-02T15:39:37.807Z,25.88
2022-08-02T15:42:05.617Z,26.11
2022-08-02T15:44:33.210Z,26.05
2022-08-02T15:47:00.954Z,26.05
2022-08-02T15:49:28.611Z,25.85
2022-08-02T15:51:56.548Z,25.91
2022-08-02T15:54:24.342Z,25.46
2022-08-02T15:56:51.950Z,25.79
2022-08-02T15:59:19.641Z,25.29
2022-08-02T16:01:48.099Z,25.35
2022-08-02T16:04:17.557Z,24.80
2022-08-02T16:06:45.241Z,24.69
2022-08-02T16:09:12.963Z,24.26
2022-08-02T16:11:40.589Z,24.04
2022-08-02T16:14:08.159Z,23.85
2022-08-02T16:16:36.942Z,23.67
2022-08-02T16:19:46.423Z,23.05
2022-08-02T16:21:54.463Z,22.90
2022-08-02T16:24:22.642Z,22.53
2022-08-02T16:26:50.359Z,22.11
2022-08-02T16:29:19.685Z,22.28
2022-08-02T16:31:48.066Z,22.06
2022-08-02T16:34:16.888Z,22.02
2022-08-02T16:36:45.310Z,21.80
2022-08-02T16:39:13.279Z,21.65
2022-08-02T16:41:50.888Z,21.26
2022-08-02T16:44:27.577Z,21.90
2022-08-02T16:50:07.365Z,21.49
2022-08-02T16:52:34.303Z,21.60
2022-08-02T16:55:02.058Z,21.40
2022-08-02T16:57:42.928Z,21.50
2022-08-02T17:00:13.446Z,21.50
2022-08-02T17:02:43.422Z,21.63
2022-08-02T17:05:14.409Z,21.42
2022-08-02T17:08:07.930Z,21.47
2022-08-02T17:10:36.095Z,21.71
2022-08-02T17:13:11.599Z,21.91
2022-08-02T17:16:07.900Z,22.28
2022-08-02T17:18:29.510Z,22.26
2022-08-02T17:20:58.005Z,23.05
2022-08-02T17:24:03.804Z,23.47
2022-08-02T17:26:13.707Z,23.75
2022-08-02T17:29:06.908Z,24.24
2022-08-02T17:31:37.257Z,24.62
2022-08-02T17:34:11.418Z,24.91
2022-08-02T17:36:39.187Z,25.35
2022-08-02T17:39:08.005Z,25.56
2022-08-02T17:41:48.879Z,26.01
2022-08-02T17:44:37.195Z,26.41
2022-08-02T17:47:08.523Z,26.62
2022-08-02T17:49:44.481Z,27.06
2022-08-02T17:52:52.092Z,27.22
2022-08-02T17:55:06.121Z,27.61
2022-08-02T17:57:56.088Z,28.07
2022-08-02T18:00:21.639Z,28.56
2022-08-02T18:02:52.967Z,28.89
2022-08-02T18:05:39.096Z,29.55
2022-08-02T18:08:09.733Z,30.02
2022-08-02T18:10:39.184Z,30.23
2022-08-02T18:13:06.869Z,30.63
2022-08-02T18:15:35.476Z,30.57
2022-08-02T18:18:03.878Z,31.05
2022-08-02T18:20:31.966Z,31.44
2022-08-02T18:23:00.219Z,31.88
2022-08-02T18:25:36.802Z,32.09
2022-08-02T18:28:11.617Z,32.80
2022-08-02T18:30:39.633Z,33.35
2022-08-02T18:33:55.137Z,33.81
2022-08-02T18:35:56.110Z,34.29
2022-08-02T18:38:25.067Z,34.21
2022-08-02T18:40:55.627Z,34.33
2022-08-02T18:43:25.508Z,34.70
2022-08-02T18:48:48.154Z,35.36
2022-08-02T18:51:18.778Z,35.55
2022-08-02T18:53:50.963Z,36.15
2022-08-02T18:56:24.136Z,36.50
2022-08-02T18:58:55.094Z,37.11
2022-08-02T19:01:32.137Z,37.10
2022-08-02T19:04:04.592Z,37.59
2022-08-02T19:06:32.519Z,37.77
2022-08-02T19:09:13.010Z,38.24
2022-08-02T19:11:47.303Z,38.92
2022-08-02T19:14:19.082Z,39.35
2022-08-02T19:16:52.087Z,39.68
2022-08-02T19:19:20.432Z,39.83
2022-08-02T19:22:17.847Z,40.24
2022-08-02T19:24:37.444Z,40.66
2022-08-02T19:27:13.537Z,40.88
2022-08-02T19:29:49.034Z,41.09
2022-08-02T19:32:40.289Z,41.45
2022-08-02T19:35:15.307Z,41.75
2022-08-02T19:38:05.924Z,42.07
2022-08-02T19:40:33.940Z,42.23
2022-08-02T19:44:26.242Z,42.53
2022-08-02T19:45:51.572Z,42.87
2022-08-02T19:48:24.071Z,42.85
2022-08-02T19:50:56.085Z,43.17
2022-08-02T19:53:28.902Z,43.64
2022-08-02T19:55:59.908Z,43.83
2022-08-02T19:58:32.376Z,44.02
2022-08-02T20:01:00.167Z,44.07
2022-08-02T20:03:52.212Z,44.07
2022-08-02T20:06:17.810Z,44.30
2022-08-02T20:08:53.450Z,44.51
2022-08-02T20:11:25.010Z,44.97
2022-08-02T20:13:53.290Z,45.01
2022-08-02T20:16:28.109Z,45.30
2022-08-02T20:18:56.515Z,45.45
2022-08-02T20:21:35.509Z,45.64
2022-08-02T20:24:06.620Z,46.18
2022-08-02T20:26:35.253Z,46.33
2022-08-02T20:29:04.341Z,46.56
2022-08-02T20:31:32.314Z,46.79
2022-08-02T20:34:00.249Z,47.27
2022-08-02T20:36:28.306Z,47.70
2022-08-02T20:38:56.151Z,48.06
2022-08-02T20:41:23.802Z,48.24
2022-08-02T20:44:05.129Z,48.78
2022-08-02T20:46:44.336Z,48.79
2022-08-02T20:49:21.618Z,48.90
2022-08-02T20:51:52.848Z,49.25
2022-08-02T20:54:22.412Z,49.37
2022-08-02T20:56:50.663Z,49.45
2022-08-02T20:59:21.071Z,49.75
2022-08-02T21:01:56.893Z,49.89
2022-08-02T21:04:26.550Z,50.24
2022-08-02T21:06:55.710Z,50.59
2022-08-02T21:09:52.856Z,50.98
2022-08-02T21:12:12.913Z,51.13
2022-08-02T21:14:40.689Z,51.37
2022-08-02T21:17:10.423Z,51.52
2022-08-02T21:19:44.223Z,51.61
2022-08-02T21:22:12.454Z,51.91
2022-08-02T21:24:40.074Z,52.13
2022-08-02T21:27:51.365Z,52.20
2022-08-02T21:29:55.253Z,52.74
2022-08-02T21:32:23.471Z,52.81
2022-08-02T21:34:53.195Z,53.13
2022-08-02T21:37:20.789Z,53.36
2022-08-02T21:40:00.706Z,53.88
2022-08-02T21:42:28.324Z,53.71
2022-08-02T21:44:57.533Z,53.95
2022-08-02T21:47:26.852Z,54.20
2022-08-02T21:50:12.700Z,54.32
2022-08-02T21:52:52.461Z,54.49
2022-08-02T21:55:21.433Z,54.46
2022-08-02T21:57:51.897Z,54.48
2022-08-02T22:00:28.560Z,54.49
2022-08-02T22:02:56.657Z,54.63
2022-08-02T22:05:24.372Z,54.66
2022-08-02T22:07:52.043Z,54.95
2022-08-02T22:10:19.711Z,55.18
2022-08-02T22:12:47.450Z,55.34
2022-08-02T22:15:15.191Z,55.58
2022-08-02T22:17:51.621Z,55.73
2022-08-02T22:20:21.855Z,55.90
2022-08-02T22:22:51.154Z,55.87
2022-08-02T22:25:31.541Z,55.96
2022-08-02T22:28:35.595Z,55.99
2022-08-02T22:31:00.135Z,56.30
2022-08-02T22:33:59.917Z,56.16
2022-08-02T22:36:33.596Z,56.53
2022-08-02T22:39:03.002Z,56.47
2022-08-02T22:42:01.745Z,56.57
2022-08-02T22:47:14.962Z,56.88
2022-08-02T22:49:53.187Z,57.06
2022-08-02T22:52:24.157Z,57.11
2022-08-02T22:54:51.999Z,57.01
2022-08-02T22:57:30.063Z,57.17
2022-08-02T22:58:50.938Z,21.48
2022-08-02T22:58:58.523Z,35.10
2022-08-02T22:59:09.786Z,56.81
2022-08-02T23:00:00.536Z,57.37
2022-08-02T23:02:28.346Z,57.55
2022-08-02T23:04:58.210Z,57.61
2022-08-02T23:07:26.210Z,57.79
2022-08-02T23:09:54.438Z,57.78
2022-08-02T23:12:22.353Z,58.00
2022-08-02T23:14:51.925Z,57.92
2022-08-02T23:17:36.082Z,58.05
2022-08-02T23:20:11.661Z,58.23
2022-08-02T23:22:39.534Z,58.39
2022-08-02T23:25:08.763Z,58.54
2022-08-02T23:27:36.413Z,58.49
2022-08-02T23:30:06.207Z,58.63
2022-08-02T23:32:33.903Z,58.76
2022-08-02T23:35:02.307Z,58.92
2022-08-02T23:37:31.878Z,59.04
2022-08-02T23:40:39.434Z,59.24
2022-08-02T23:43:13.380Z,59.46
2022-08-02T23:45:45.108Z,59.53
2022-08-02T23:48:13.038Z,59.49
2022-08-02T23:50:40.743Z,59.78
2022-08-02T23:53:08.374Z,59.71
2022-08-02T23:55:35.961Z,60.03
2022-08-02T23:58:03.560Z,59.97
